createdAt,value
2018-12-25T00:01:16.098Z,3.87
2018-12-25T00:03:45.089Z,4.10
2018-12-25T00:06:14.048Z,4.20
2018-12-25T00:08:43.019Z,3.87
2018-12-25T00:11:11.978Z,4.13
2018-12-25T00:13:40.979Z,4.00
2018-12-25T00:16:09.963Z,4.10
2018-12-25T00:18:38.950Z,4.20
2018-12-25T00:21:07.918Z,3.90
2018-12-25T00:23:36.895Z,3.93
2018-12-25T00:26:05.867Z,4.43
2018-12-25T00:28:34.853Z,3.73
2018-12-25T00:31:03.823Z,3.90
2018-12-25T00:33:32.842Z,4.10
2018-12-25T00:36:01.810Z,4.57
2018-12-25T00:38:30.790Z,4.50
2018-12-25T00:40:59.789Z,5.20
2018-12-25T00:43:28.894Z,4.97
2018-12-25T00:45:57.873Z,4.70
2018-12-25T00:48:26.864Z,4.70
2018-12-25T00:50:55.822Z,4.60
2018-12-25T00:53:24.786Z,4.60
2018-12-25T00:55:53.766Z,5.10
2018-12-25T00:58:22.738Z,4.60
2018-12-25T01:00:51.709Z,4.47
2018-12-25T01:03:20.742Z,4.77
2018-12-25T01:05:49.726Z,4.57
2018-12-25T01:08:18.685Z,5.30
2018-12-25T01:10:47.654Z,4.97
2018-12-25T01:13:16.626Z,4.77
2018-12-25T01:15:45.599Z,4.50
2018-12-25T01:18:14.569Z,4.30
2018-12-25T01:20:43.546Z,5.03
2018-12-25T01:23:12.493Z,4.60
2018-12-25T01:25:41.478Z,4.70
2018-12-25T01:28:10.672Z,5.70
2018-12-25T01:30:39.743Z,5.20
2018-12-25T01:33:08.726Z,5.23
2018-12-25T01:35:37.765Z,5.17
2018-12-25T01:38:06.958Z,4.83
2018-12-25T01:40:35.925Z,4.67
2018-12-25T01:43:04.873Z,4.47
2018-12-25T01:45:33.850Z,5.03
2018-12-25T01:48:02.810Z,4.50
2018-12-25T01:50:31.774Z,4.90
2018-12-25T01:53:00.811Z,4.80
2018-12-25T01:55:29.785Z,4.97
2018-12-25T01:57:58.743Z,4.60
2018-12-25T02:00:27.722Z,4.70
2018-12-25T02:02:56.746Z,5.17
2018-12-25T02:05:25.718Z,4.90
2018-12-25T02:07:54.678Z,4.90
2018-12-25T02:10:23.674Z,5.00
2018-12-25T02:12:52.626Z,5.50
2018-12-25T02:15:21.599Z,4.77
2018-12-25T02:17:50.554Z,5.50
2018-12-25T02:20:19.543Z,4.77
2018-12-25T02:22:48.497Z,5.43
2018-12-25T02:25:17.471Z,4.60
2018-12-25T02:27:46.454Z,5.23
2018-12-25T02:30:15.435Z,5.50
2018-12-25T02:32:44.404Z,5.20
2018-12-25T02:35:13.375Z,5.10
2018-12-25T02:37:42.347Z,5.57
2018-12-25T02:40:11.350Z,5.03
2018-12-25T02:42:40.313Z,5.00
2018-12-25T02:45:09.288Z,5.57
2018-12-25T02:47:38.333Z,5.20
2018-12-25T02:50:07.293Z,5.33
2018-12-25T02:52:36.282Z,5.60
2018-12-25T02:55:05.234Z,5.57
2018-12-25T02:57:34.217Z,5.43
2018-12-25T03:00:03.490Z,5.40
2018-12-25T03:02:32.459Z,5.23
2018-12-25T03:05:01.433Z,5.37
2018-12-25T03:07:30.418Z,5.60
2018-12-25T03:09:59.383Z,5.30
2018-12-25T03:12:28.390Z,5.27
2018-12-25T03:14:57.343Z,4.97
2018-12-25T03:17:26.316Z,5.27
2018-12-25T03:19:59.880Z,5.10
2018-12-25T03:22:28.452Z,5.70
2018-12-25T03:24:56.595Z,5.23
2018-12-25T03:27:25.583Z,4.93
2018-12-25T03:29:54.714Z,5.80
2018-12-25T03:32:23.688Z,5.40
2018-12-25T03:34:52.643Z,5.37
2018-12-25T03:37:21.606Z,4.97
2018-12-25T03:39:50.558Z,5.20
2018-12-25T03:42:19.534Z,5.07
2018-12-25T03:44:48.491Z,5.30
2018-12-25T03:47:17.458Z,5.57
2018-12-25T03:49:46.432Z,5.60
2018-12-25T03:52:15.403Z,5.70
2018-12-25T03:54:44.371Z,5.50
2018-12-25T03:57:13.351Z,5.83
2018-12-25T03:59:42.306Z,6.00
2018-12-25T04:02:11.286Z,6.10
2018-12-25T04:04:40.230Z,6.27
2018-12-25T04:07:09.215Z,5.33
2018-12-25T04:09:38.167Z,5.80
2018-12-25T04:12:07.143Z,5.40
2018-12-25T04:14:36.103Z,5.60
2018-12-25T04:17:05.069Z,5.27
2018-12-25T04:19:34.041Z,5.70
2018-12-25T04:22:03.014Z,5.87
2018-12-25T04:24:31.999Z,5.83
2018-12-25T04:27:01.163Z,5.83
2018-12-25T04:29:30.115Z,6.00
2018-12-25T04:31:59.104Z,6.13
2018-12-25T04:34:28.099Z,6.27
2018-12-25T04:36:57.154Z,5.50
2018-12-25T04:39:26.127Z,5.47
2018-12-25T04:41:55.121Z,5.50
2018-12-25T04:44:24.166Z,6.03
2018-12-25T04:46:53.228Z,5.83
2018-12-25T04:49:22.197Z,5.30
2018-12-25T04:51:51.168Z,6.00
2018-12-25T04:54:20.151Z,6.10
2018-12-25T04:56:50.491Z,6.03
2018-12-25T04:59:19.482Z,5.77
2018-12-25T05:01:48.464Z,5.37
2018-12-25T05:04:17.451Z,5.63
2018-12-25T05:06:46.427Z,5.60
2018-12-25T05:09:15.409Z,5.73
2018-12-25T05:11:44.424Z,5.10
2018-12-25T05:14:13.426Z,5.50
2018-12-25T05:16:42.390Z,5.23
2018-12-25T05:19:11.376Z,5.60
2018-12-25T05:21:40.358Z,5.87
2018-12-25T05:24:09.336Z,5.23
2018-12-25T05:26:38.311Z,5.37
2018-12-25T05:29:07.279Z,5.70
2018-12-25T05:31:36.277Z,5.50
2018-12-25T05:34:05.273Z,5.60
2018-12-25T05:36:34.238Z,4.93
2018-12-25T05:39:04.078Z,6.00
2018-12-25T05:41:33.050Z,5.70
2018-12-25T05:44:02.043Z,5.63
2018-12-25T05:46:31.039Z,5.60
2018-12-25T05:49:00.018Z,5.80
2018-12-25T05:51:28.983Z,6.40
2018-12-25T05:53:57.971Z,5.83
2018-12-25T05:56:26.968Z,5.97
2018-12-25T05:58:55.930Z,5.50
2018-12-25T06:01:24.906Z,5.40
2018-12-25T06:03:53.946Z,5.53
2018-12-25T06:06:22.926Z,5.40
2018-12-25T06:08:51.917Z,5.23
2018-12-25T06:11:20.968Z,5.83
2018-12-25T06:13:49.961Z,5.27
2018-12-25T06:16:18.931Z,5.30
2018-12-25T06:18:47.977Z,5.23
2018-12-25T06:21:16.980Z,5.63
2018-12-25T06:23:45.989Z,5.70
2018-12-25T06:26:14.947Z,5.57
2018-12-25T06:28:43.961Z,5.67
2018-12-25T06:31:12.926Z,5.27
2018-12-25T06:33:42.007Z,5.20
2018-12-25T06:36:11.037Z,5.60
2018-12-25T06:38:40.055Z,5.53
2018-12-25T06:41:09.025Z,5.43
2018-12-25T06:43:37.998Z,5.73
2018-12-25T06:46:06.973Z,5.27
2018-12-25T06:48:35.969Z,5.37
2018-12-25T06:51:04.956Z,6.03
2018-12-25T06:53:34.030Z,6.07
2018-12-25T06:56:03.021Z,5.10
2018-12-25T06:58:31.976Z,5.60
2018-12-25T07:01:01.036Z,6.03
2018-12-25T07:03:29.990Z,5.47
2018-12-25T07:05:58.988Z,5.33
2018-12-25T07:08:27.943Z,5.50
2018-12-25T07:10:56.930Z,5.80
2018-12-25T07:13:25.874Z,5.57
2018-12-25T07:15:54.948Z,6.13
2018-12-25T07:18:23.893Z,5.87
2018-12-25T07:20:52.968Z,6.17
2018-12-25T07:23:21.942Z,5.37
2018-12-25T07:25:50.946Z,5.60
2018-12-25T07:28:19.903Z,5.57
2018-12-25T07:30:48.887Z,6.07
2018-12-25T07:33:17.878Z,6.03
2018-12-25T07:35:46.872Z,6.17
2018-12-25T07:38:15.843Z,5.83
2018-12-25T07:40:44.828Z,6.63
2018-12-25T07:43:13.801Z,8.07
2018-12-25T07:45:42.796Z,7.40
2018-12-25T07:48:11.795Z,6.30
2018-12-25T07:50:40.762Z,7.30
2018-12-25T07:53:09.738Z,6.07
2018-12-25T07:55:38.937Z,6.70
2018-12-25T07:58:07.922Z,6.07
2018-12-25T08:00:36.886Z,6.00
2018-12-25T08:03:05.866Z,6.83
2018-12-25T08:05:34.870Z,6.87
2018-12-25T08:08:03.831Z,6.60
2018-12-25T08:10:32.830Z,6.97
2018-12-25T08:13:01.889Z,7.47
2018-12-25T08:15:31.007Z,7.00
2018-12-25T08:18:00.048Z,6.97
2018-12-25T08:20:29.047Z,7.67
2018-12-25T08:23:02.500Z,7.67
2018-12-25T08:25:28.706Z,9.53
2018-12-25T08:27:57.704Z,9.50
2018-12-25T08:30:26.694Z,8.87
2018-12-25T08:32:55.747Z,8.60
2018-12-25T08:35:24.740Z,8.83
2018-12-25T08:37:53.714Z,8.57
2018-12-25T08:40:22.771Z,9.00
2018-12-25T08:42:51.759Z,8.43
2018-12-25T08:45:20.778Z,7.47
2018-12-25T08:47:49.747Z,7.37
2018-12-25T08:50:18.737Z,7.20
2018-12-25T08:52:47.706Z,6.77
2018-12-25T08:55:16.691Z,7.20
2018-12-25T08:57:45.742Z,7.00
2018-12-25T09:00:14.722Z,6.23
2018-12-25T09:02:43.848Z,7.27
2018-12-25T09:05:12.821Z,7.57
2018-12-25T09:07:41.806Z,7.10
2018-12-25T09:10:10.763Z,6.50
2018-12-25T09:12:39.757Z,7.40
2018-12-25T09:15:08.823Z,6.23
2018-12-25T09:17:37.923Z,7.17
2018-12-25T09:20:06.911Z,6.37
2018-12-25T09:22:35.879Z,6.50
2018-12-25T09:25:05.083Z,6.53
2018-12-25T09:27:34.094Z,6.23
2018-12-25T09:30:03.103Z,6.27
2018-12-25T09:32:32.073Z,7.07
2018-12-25T09:35:01.063Z,6.57
2018-12-25T09:37:30.026Z,6.93
2018-12-25T09:39:59.013Z,7.00
2018-12-25T09:42:28.123Z,7.00
2018-12-25T09:44:57.111Z,8.00
2018-12-25T09:47:26.099Z,6.97
2018-12-25T09:49:55.081Z,6.70
2018-12-25T09:52:24.037Z,7.80
2018-12-25T09:54:53.182Z,6.97
2018-12-25T09:57:22.134Z,7.80
2018-12-25T09:59:51.222Z,7.80
2018-12-25T10:02:20.272Z,7.77
2018-12-25T10:04:49.259Z,6.77
2018-12-25T10:07:18.260Z,7.30
2018-12-25T10:09:47.227Z,5.53
2018-12-25T10:12:16.229Z,6.40
2018-12-25T10:14:45.194Z,6.87
2018-12-25T10:17:14.205Z,8.47
2018-12-25T10:19:43.146Z,7.03
2018-12-25T10:22:12.790Z,7.50
2018-12-25T10:24:41.765Z,6.40
2018-12-25T10:27:10.758Z,6.57
2018-12-25T10:29:39.730Z,6.33
2018-12-25T10:32:08.738Z,6.00
2018-12-25T10:34:37.795Z,5.40
2018-12-25T10:37:06.798Z,5.00
2018-12-25T10:39:35.746Z,5.17
2018-12-25T10:42:04.729Z,5.50
2018-12-25T10:44:33.684Z,6.20
2018-12-25T10:47:02.819Z,6.97
2018-12-25T10:49:32.030Z,6.47
2018-12-25T10:52:01.167Z,6.70
2018-12-25T10:54:30.153Z,6.33
2018-12-25T10:56:59.169Z,6.13
2018-12-25T10:59:28.216Z,6.20
2018-12-25T11:01:57.237Z,7.00
2018-12-25T11:04:26.279Z,6.53
2018-12-25T11:06:55.253Z,6.63
2018-12-25T11:09:24.223Z,5.63
2018-12-25T11:11:53.214Z,5.30
2018-12-25T11:14:22.194Z,5.53
2018-12-25T11:16:51.201Z,6.30
2018-12-25T11:19:20.178Z,6.63
2018-12-25T11:21:49.147Z,6.83
2018-12-25T11:24:18.156Z,6.33
2018-12-25T11:26:47.143Z,6.43
2018-12-25T11:29:16.118Z,6.70
2018-12-25T11:31:45.141Z,5.80
2018-12-25T11:34:14.195Z,5.83
2018-12-25T11:36:43.191Z,5.47
2018-12-25T11:39:12.270Z,6.20
2018-12-25T11:41:41.293Z,5.27
2018-12-25T11:44:10.256Z,5.43
2018-12-25T11:46:39.270Z,5.67
2018-12-25T11:49:08.266Z,6.30
2018-12-25T11:51:37.281Z,6.20
2018-12-25T11:54:06.235Z,5.83
2018-12-25T11:56:35.214Z,6.17
2018-12-25T11:59:04.175Z,6.13
2018-12-25T12:01:33.239Z,5.93
2018-12-25T12:04:02.199Z,6.20
2018-12-25T12:06:31.190Z,5.93
2018-12-25T12:09:00.142Z,6.43
2018-12-25T12:11:29.128Z,5.80
2018-12-25T12:13:58.078Z,6.30
2018-12-25T12:16:27.075Z,6.20
2018-12-25T12:18:56.063Z,6.43
2018-12-25T12:21:25.109Z,6.30
2018-12-25T12:23:54.072Z,6.07
2018-12-25T12:26:23.061Z,5.73
2018-12-25T12:28:52.045Z,5.87
2018-12-25T12:31:21.018Z,5.30
2018-12-25T12:33:50.013Z,5.30
2018-12-25T12:36:19.079Z,5.60
2018-12-25T12:38:48.078Z,6.17
2018-12-25T12:41:17.045Z,6.70
2018-12-25T12:43:46.018Z,5.73
2018-12-25T12:46:14.981Z,6.13
2018-12-25T12:48:44.038Z,5.57
2018-12-25T12:51:13.020Z,6.20
2018-12-25T12:53:41.985Z,6.17
2018-12-25T12:56:10.962Z,6.90
2018-12-25T12:58:39.934Z,6.37
2018-12-25T13:01:08.898Z,6.60
2018-12-25T13:03:37.991Z,6.53
2018-12-25T13:06:06.948Z,7.73
2018-12-25T13:08:36.007Z,6.63
2018-12-25T13:11:04.975Z,5.77
2018-12-25T13:13:33.950Z,6.60
2018-12-25T13:16:03.061Z,6.83
2018-12-25T13:18:32.057Z,6.93
2018-12-25T13:21:01.062Z,6.17
2018-12-25T13:23:30.029Z,6.33
2018-12-25T13:25:59.094Z,6.50
2018-12-25T13:28:28.113Z,6.70
2018-12-25T13:30:57.072Z,5.90
2018-12-25T13:33:26.073Z,6.50
2018-12-25T13:35:55.035Z,7.10
2018-12-25T13:38:24.022Z,6.40
2018-12-25T13:40:52.987Z,5.93
2018-12-25T13:43:21.975Z,6.57
2018-12-25T13:45:50.960Z,7.00
2018-12-25T13:48:19.944Z,6.33
2018-12-25T13:50:48.897Z,5.77
2018-12-25T13:53:17.903Z,6.00
2018-12-25T13:55:46.871Z,5.67
2018-12-25T13:58:15.844Z,5.97
2018-12-25T14:00:44.819Z,6.50
2018-12-25T14:03:15.102Z,6.10
2018-12-25T14:05:44.052Z,5.33
2018-12-25T14:08:13.047Z,5.37
2018-12-25T14:10:42.002Z,6.27
2018-12-25T14:13:10.990Z,5.40
2018-12-25T14:15:39.976Z,5.23
2018-12-25T14:18:08.953Z,5.27
2018-12-25T14:20:37.950Z,6.00
2018-12-25T14:23:11.148Z,5.67
2018-12-25T14:25:37.667Z,6.63
2018-12-25T14:28:06.646Z,5.60
2018-12-25T14:30:35.705Z,6.90
2018-12-25T14:33:04.738Z,6.17
2018-12-25T14:35:33.767Z,7.20
2018-12-25T14:38:02.743Z,6.43
2018-12-25T14:40:31.753Z,6.37
2018-12-25T14:43:00.734Z,6.50
2018-12-25T14:45:29.739Z,6.27
2018-12-25T14:47:58.689Z,6.20
2018-12-25T14:50:27.725Z,7.00
2018-12-25T14:52:56.805Z,6.10
2018-12-25T14:55:25.822Z,6.47
2018-12-25T14:57:54.798Z,5.80
2018-12-25T15:00:23.794Z,6.17
2018-12-25T15:02:52.872Z,6.10
2018-12-25T15:05:21.842Z,6.00
2018-12-25T15:07:50.809Z,6.03
2018-12-25T15:10:19.795Z,6.13
2018-12-25T15:12:48.767Z,5.90
2018-12-25T15:15:17.764Z,6.37
2018-12-25T15:17:46.839Z,5.47
2018-12-25T15:20:15.846Z,5.60
2018-12-25T15:22:44.794Z,5.73
2018-12-25T15:25:13.774Z,5.40
2018-12-25T15:27:42.729Z,6.40
2018-12-25T15:30:11.728Z,5.77
2018-12-25T15:32:40.690Z,6.40
2018-12-25T15:35:10.892Z,6.10
2018-12-25T15:37:40.454Z,6.07
2018-12-25T15:40:09.422Z,7.13
2018-12-25T15:42:38.387Z,6.23
2018-12-25T15:45:08.134Z,6.20
2018-12-25T15:47:37.102Z,6.37
2018-12-25T15:50:06.366Z,6.33
2018-12-25T15:52:35.338Z,6.43
2018-12-25T15:55:04.449Z,6.63
2018-12-25T15:57:33.547Z,6.43
2018-12-25T16:00:02.620Z,7.00
2018-12-25T16:02:31.768Z,6.30
2018-12-25T16:05:00.891Z,6.30
2018-12-25T16:07:29.887Z,6.43
2018-12-25T16:09:58.899Z,6.23
2018-12-25T16:12:27.862Z,6.43
2018-12-25T16:14:56.942Z,6.23
2018-12-25T16:17:25.925Z,5.67
2018-12-25T16:19:54.914Z,6.23
2018-12-25T16:22:24.157Z,6.13
2018-12-25T16:24:53.219Z,5.73
2018-12-25T16:27:22.348Z,5.60
2018-12-25T16:29:51.351Z,5.43
2018-12-25T16:32:20.380Z,6.50
2018-12-25T16:34:49.497Z,5.90
2018-12-25T16:37:18.465Z,5.63
2018-12-25T16:39:47.490Z,5.70
2018-12-25T16:42:16.569Z,6.03
2018-12-25T16:44:45.572Z,5.83
2018-12-25T16:47:14.607Z,5.90
2018-12-25T16:49:43.590Z,6.00
2018-12-25T16:52:12.711Z,6.60
2018-12-25T16:54:41.715Z,6.30
2018-12-25T16:57:11.161Z,6.53
2018-12-25T16:59:40.157Z,5.43
2018-12-25T17:02:09.230Z,6.77
2018-12-25T17:04:38.406Z,6.70
2018-12-25T17:07:07.619Z,5.90
2018-12-25T17:09:36.833Z,6.60
2018-12-25T17:12:06.002Z,7.20
2018-12-25T17:14:35.174Z,6.37
2018-12-25T17:17:04.195Z,6.40
2018-12-25T17:19:33.259Z,6.43
2018-12-25T17:22:02.234Z,6.60
2018-12-25T17:24:31.210Z,8.10
2018-12-25T17:27:00.242Z,7.07
2018-12-25T17:29:29.203Z,6.47
2018-12-25T17:31:58.178Z,6.47
2018-12-25T17:34:27.150Z,6.20
2018-12-25T17:36:56.126Z,7.40
2018-12-25T17:39:25.151Z,6.70
2018-12-25T17:41:54.206Z,7.60
2018-12-25T17:44:23.153Z,7.07
2018-12-25T17:46:52.151Z,8.93
2018-12-25T17:49:21.170Z,6.73
2018-12-25T17:51:53.585Z,6.60
2018-12-25T17:54:20.866Z,6.00
2018-12-25T17:56:49.841Z,6.23
2018-12-25T17:59:18.802Z,6.60
2018-12-25T18:01:47.803Z,7.20
2018-12-25T18:04:16.816Z,6.83
2018-12-25T18:06:45.780Z,6.73
2018-12-25T18:09:14.776Z,6.87
2018-12-25T18:11:43.775Z,6.70
2018-12-25T18:14:12.817Z,7.20
2018-12-25T18:16:41.810Z,6.80
2018-12-25T18:19:10.811Z,7.50
2018-12-25T18:21:39.842Z,6.97
2018-12-25T18:24:08.809Z,7.00
2018-12-25T18:26:37.848Z,6.63
2018-12-25T18:29:06.820Z,6.30
2018-12-25T18:31:35.827Z,6.90
2018-12-25T18:34:04.795Z,7.37
2018-12-25T18:36:33.794Z,7.87
2018-12-25T18:39:03.987Z,7.70
2018-12-25T18:41:33.042Z,7.10
2018-12-25T18:44:02.041Z,7.00
2018-12-25T18:46:31.112Z,7.90
2018-12-25T18:49:00.097Z,7.43
2018-12-25T18:51:29.115Z,7.63
2018-12-25T18:53:58.149Z,7.97
2018-12-25T18:56:27.259Z,7.77
2018-12-25T18:58:57.481Z,7.13
2018-12-25T19:01:27.015Z,8.07
2018-12-25T19:03:56.092Z,7.27
2018-12-25T19:06:25.080Z,7.23
2018-12-25T19:08:54.031Z,7.53
2018-12-25T19:11:23.030Z,7.53
2018-12-25T19:13:52.024Z,7.10
2018-12-25T19:16:21.030Z,7.73
2018-12-25T19:18:49.985Z,7.53
2018-12-25T19:21:18.983Z,7.73
2018-12-25T19:23:50.536Z,7.80
2018-12-25T19:26:19.518Z,8.60
2018-12-25T19:28:48.568Z,8.57
2018-12-25T19:31:17.602Z,8.03
2018-12-25T19:33:46.608Z,8.30
2018-12-25T19:36:15.634Z,7.90
2018-12-25T19:38:44.634Z,8.17
2018-12-25T19:41:13.657Z,7.60
2018-12-25T19:43:42.649Z,8.07
2018-12-25T19:46:11.607Z,9.33
2018-12-25T19:48:40.602Z,9.47
2018-12-25T19:51:09.594Z,8.97
2018-12-25T19:53:38.642Z,10.03
2018-12-25T19:56:07.727Z,10.20
2018-12-25T19:58:36.705Z,10.40
2018-12-25T20:01:05.700Z,9.80
2018-12-25T20:03:44.201Z,9.93
2018-12-25T20:06:30.779Z,9.13
2018-12-25T20:09:06.866Z,8.07
2018-12-25T20:11:52.406Z,10.67
2018-12-25T20:14:44.420Z,10.70
2018-12-25T20:17:22.969Z,10.67
2018-12-25T20:20:09.610Z,9.90
2018-12-25T20:22:57.699Z,11.53
2018-12-25T20:25:53.790Z,11.27
2018-12-25T20:28:35.746Z,15.80
2018-12-25T20:31:20.658Z,16.87
2018-12-25T20:34:07.483Z,20.83
2018-12-25T20:36:59.014Z,16.53
2018-12-25T20:39:45.142Z,14.50
2018-12-25T20:42:48.455Z,14.87
2018-12-25T20:45:35.211Z,12.40
2018-12-25T20:48:41.564Z,14.50
2018-12-25T20:51:33.543Z,11.13
2018-12-25T20:54:30.651Z,12.10
2018-12-25T20:57:21.618Z,11.10
2018-12-25T21:00:00.155Z,11.60
2018-12-25T21:02:46.964Z,11.83
2018-12-25T21:05:47.363Z,13.60
2018-12-25T21:08:47.682Z,13.53
2018-12-25T21:11:35.831Z,14.03
2018-12-25T21:14:12.278Z,12.80
2018-12-25T21:17:00.269Z,12.17
2018-12-25T21:19:54.158Z,12.67
2018-12-25T21:22:45.018Z,11.10
2018-12-25T21:25:32.109Z,10.83
2018-12-25T21:28:00.811Z,10.70
2018-12-25T21:30:29.813Z,9.97
2018-12-25T21:32:58.850Z,11.80
2018-12-25T21:35:27.889Z,13.93
2018-12-25T21:37:58.595Z,11.97
2018-12-25T21:40:27.701Z,12.03
2018-12-25T21:42:57.024Z,12.37
2018-12-25T21:45:26.795Z,10.20
2018-12-25T21:47:57.541Z,11.47
2018-12-25T21:50:27.431Z,11.27
2018-12-25T21:52:57.522Z,11.17
2018-12-25T21:55:28.125Z,12.10
2018-12-25T21:57:57.802Z,11.17
2018-12-25T22:00:30.464Z,11.30
2018-12-25T22:03:00.956Z,11.93
2018-12-25T22:05:31.395Z,15.23
2018-12-25T22:08:01.239Z,10.30
2018-12-25T22:10:30.977Z,10.80
2018-12-25T22:13:00.691Z,10.57
2018-12-25T22:15:30.856Z,10.13
2018-12-25T22:18:00.588Z,10.73
2018-12-25T22:20:33.419Z,10.67
2018-12-25T22:23:03.183Z,10.47
2018-12-25T22:25:32.969Z,10.57
2018-12-25T22:28:02.700Z,10.13
2018-12-25T22:30:32.423Z,10.80
2018-12-25T22:33:02.148Z,11.43
2018-12-25T22:35:31.862Z,12.47
2018-12-25T22:38:01.624Z,11.00
2018-12-25T22:40:31.355Z,12.47
2018-12-25T22:43:01.586Z,10.13
2018-12-25T22:45:31.331Z,11.17
2018-12-25T22:48:01.224Z,10.93
2018-12-25T22:50:31.012Z,13.73
2018-12-25T22:53:01.231Z,13.60
2018-12-25T22:55:35.759Z,14.40
2018-12-25T22:58:02.400Z,13.90
2018-12-25T23:00:32.248Z,14.43
2018-12-25T23:03:02.060Z,15.20
2018-12-25T23:05:31.856Z,15.10
2018-12-25T23:08:01.728Z,16.73
2018-12-25T23:10:31.447Z,15.30
2018-12-25T23:13:01.290Z,16.87
2018-12-25T23:15:31.055Z,18.40
2018-12-25T23:18:01.204Z,17.27
2018-12-25T23:20:31.002Z,18.07
2018-12-25T23:23:00.718Z,17.47
2018-12-25T23:25:30.452Z,21.20
2018-12-25T23:28:00.266Z,18.23
2018-12-25T23:30:29.943Z,18.33
2018-12-25T23:32:59.666Z,18.17
2018-12-25T23:35:29.442Z,17.63
2018-12-25T23:37:59.299Z,16.87
2018-12-25T23:40:29.020Z,16.13
2018-12-25T23:42:58.734Z,13.37
2018-12-25T23:45:28.409Z,15.17
2018-12-25T23:47:58.166Z,13.03
2018-12-25T23:50:27.840Z,11.90
2018-12-25T23:52:57.648Z,12.80
2018-12-25T23:55:27.471Z,12.80
2018-12-25T23:57:57.288Z,11.73
